Buchanan Airport

Jump to: basic info | weather | comments

Related pages: nearby airports | nearby navaids | notams | map

Basic information (top)

Codes: UCN GLBU
Location: lon 5.167650, lat -9.283470, elev 41 ft / 12 m msl
Status: small_airport
Scheduled airline service: no
Links: Wikipedia Mobile

Weather (top)

Current conditions for Roberts International Airport 91nm (168km) NW (rec'd 2014/10/20 20:30Z):

GLRB 202030Z 00000KT 9999 SCT015 FEW023CB 26/25 Q1012 RMK CB-SE/NW

Airport forecast for Roberts International Airport 91nm (168km) NW (rec'd 2014/10/20 18:54Z):

TAF TAF GLRB 201600Z 2018/2124 20010KT 9999 BKN018 FEW027CB FM 202000 24012KT 8000 TS/TSRA SCT004 BKN014 FEW024CB 
      BECMG 2102/2104 02004KT 6000 
      TEMPO 2105/2110 24010KT 9999 BKN015

Latest comments (top)

No comments yet for Buchanan Airport

More... (top)

See also NOTAMs and nearby airports and navaids, or visit the Buchanan Airport page at the main OurAirports website..